sensor_id;sensor_type;location;lat;lon;timestamp;pressure;altitude;pressure_sealevel;temperature;humidity
10668;BME280;5382;42.136;24.796;2023-10-19T00:00:47;100154.22;;;11.47;100.00
10668;BME280;5382;42.136;24.796;2023-10-19T00:03:17;100153.16;;;11.49;100.00
10668;BME280;5382;42.136;24.796;2023-10-19T00:05:44;100154.31;;;11.45;100.00
10668;BME280;5382;42.136;24.796;2023-10-19T00:08:12;100116.13;;;11.24;100.00
10668;BME280;5382;42.136;24.796;2023-10-19T00:10:43;100146.69;;;11.41;100.00
10668;BME280;5382;42.136;24.796;2023-10-19T00:13:11;100138.13;;;11.37;100.00
10668;BME280;5382;42.136;24.796;2023-10-19T00:15:39;100144.50;;;11.34;100.00
10668;BME280;5382;42.136;24.796;2023-10-19T00:18:06;100134.66;;;11.24;100.00
10668;BME280;5382;42.136;24.796;2023-10-19T00:20:49;100131.91;;;11.12;100.00
10668;BME280;5382;42.136;24.796;2023-10-19T00:23:20;100136.59;;;11.09;100.00
10668;BME280;5382;42.136;24.796;2023-10-19T00:25:55;100126.13;;;10.95;100.00
10668;BME280;5382;42.136;24.796;2023-10-19T00:28:21;100103.91;;;10.72;100.00
10668;BME280;5382;42.136;24.796;2023-10-19T00:30:51;100115.19;;;10.86;100.00
10668;BME280;5382;42.136;24.796;2023-10-19T00:33:19;100116.50;;;10.81;100.00
10668;BME280;5382;42.136;24.796;2023-10-19T00:35:48;100119.03;;;10.82;100.00
10668;BME280;5382;42.136;24.796;2023-10-19T00:38:24;100108.66;;;10.66;100.00
10668;BME280;5382;42.136;24.796;2023-10-19T00:41:05;100108.53;;;10.68;100.00
10668;BME280;5382;42.136;24.796;2023-10-19T00:43:38;100108.13;;;10.61;100.00
10668;BME280;5382;42.136;24.796;2023-10-19T00:46:08;100091.28;;;10.50;100.00
10668;BME280;5382;42.136;24.796;2023-10-19T00:48:43;100092.03;;;10.39;100.00
10668;BME280;5382;42.136;24.796;2023-10-19T00:51:14;100095.97;;;10.19;100.00
10668;BME280;5382;42.136;24.796;2023-10-19T00:53:54;100110.50;;;10.26;100.00
10668;BME280;5382;42.136;24.796;2023-10-19T00:56:22;100097.34;;;10.24;100.00
10668;BME280;5382;42.136;24.796;2023-10-19T00:58:53;100100.22;;;10.21;100.00
10668;BME280;5382;42.136;24.796;2023-10-19T01:01:29;100102.81;;;10.36;100.00
10668;BME280;5382;42.136;24.796;2023-10-19T01:03:57;100095.59;;;10.25;100.00
10668;BME280;5382;42.136;24.796;2023-10-19T01:06:25;100085.72;;;10.27;100.00
10668;BME280;5382;42.136;24.796;2023-10-19T01:08:57;100085.66;;;10.29;100.00
10668;BME280;5382;42.136;24.796;2023-10-19T01:11:23;100089.16;;;10.29;100.00
10668;BME280;5382;42.136;24.796;2023-10-19T01:13:54;100081.06;;;10.18;100.00
10668;BME280;5382;42.136;24.796;2023-10-19T01:16:21;100085.91;;;10.11;100.00
10668;BME280;5382;42.136;24.796;2023-10-19T01:18:49;100082.53;;;10.09;100.00
10668;BME280;5382;42.136;24.796;2023-10-19T01:21:23;100073.66;;;10.10;100.00
10668;BME280;5382;42.136;24.796;2023-10-19T01:24:05;100067.31;;;10.13;100.00
10668;BME280;5382;42.136;24.796;2023-10-19T01:26:32;100074.28;;;10.14;100.00
10668;BME280;5382;42.136;24.796;2023-10-19T01:29:02;100066.34;;;10.14;100.00
10668;BME280;5382;42.136;24.796;2023-10-19T01:31:38;100076.69;;;10.04;100.00
10668;BME280;5382;42.136;24.796;2023-10-19T01:34:16;100071.81;;;9.98;100.00
10668;BME280;5382;42.136;24.796;2023-10-19T01:36:45;100061.69;;;10.04;100.00
10668;BME280;5382;42.136;24.796;2023-10-19T01:39:17;100061.19;;;10.12;100.00
10668;BME280;5382;42.136;24.796;2023-10-19T01:41:44;100071.41;;;10.04;100.00
10668;BME280;5382;42.136;24.796;2023-10-19T01:44:11;100071.94;;;10.09;100.00
10668;BME280;5382;42.136;24.796;2023-10-19T01:46:41;100071.22;;;10.07;100.00
10668;BME280;5382;42.136;24.796;2023-10-19T01:49:09;100071.91;;;9.96;100.00
10668;BME280;5382;42.136;24.796;2023-10-19T01:51:36;100077.06;;;9.85;100.00
10668;BME280;5382;42.136;24.796;2023-10-19T01:54:04;100077.50;;;9.79;100.00
10668;BME280;5382;42.136;24.796;2023-10-19T01:56:32;100067.63;;;9.68;100.00
10668;BME280;5382;42.136;24.796;2023-10-19T01:59:01;100087.56;;;9.87;100.00
10668;BME280;5382;42.136;24.796;2023-10-19T02:01:30;100082.66;;;9.80;100.00
10668;BME280;5382;42.136;24.796;2023-10-19T02:03:58;100082.53;;;9.69;100.00
10668;BME280;5382;42.136;24.796;2023-10-19T02:06:26;100089.69;;;9.67;100.00
10668;BME280;5382;42.136;24.796;2023-10-19T02:08:55;100085.16;;;9.69;100.00
10668;BME280;5382;42.136;24.796;2023-10-19T02:11:26;100080.28;;;9.63;100.00
10668;BME280;5382;42.136;24.796;2023-10-19T02:13:56;100079.34;;;9.64;100.00
10668;BME280;5382;42.136;24.796;2023-10-19T02:16:26;100073.09;;;9.65;100.00
10668;BME280;5382;42.136;24.796;2023-10-19T02:18:55;100066.25;;;9.75;100.00
10668;BME280;5382;42.136;24.796;2023-10-19T02:21:21;100070.75;;;9.88;100.00
10668;BME280;5382;42.136;24.796;2023-10-19T02:23:52;100058.53;;;9.72;100.00
10668;BME280;5382;42.136;24.796;2023-10-19T02:26:20;100074.34;;;9.87;100.00
10668;BME280;5382;42.136;24.796;2023-10-19T02:28:48;100070.81;;;9.73;100.00
10668;BME280;5382;42.136;24.796;2023-10-19T02:31:18;100071.75;;;9.72;100.00
10668;BME280;5382;42.136;24.796;2023-10-19T02:33:46;100087.06;;;9.67;100.00
10668;BME280;5382;42.136;24.796;2023-10-19T02:36:17;100086.00;;;9.70;100.00
10668;BME280;5382;42.136;24.796;2023-10-19T02:38:45;100088.50;;;9.86;100.00
10668;BME280;5382;42.136;24.796;2023-10-19T02:41:15;100084.00;;;10.00;100.00
10668;BME280;5382;42.136;24.796;2023-10-19T02:43:43;100081.97;;;10.04;100.00
10668;BME280;5382;42.136;24.796;2023-10-19T02:46:16;100086.34;;;10.05;100.00
10668;BME280;5382;42.136;24.796;2023-10-19T02:48:44;100090.91;;;10.16;100.00
10668;BME280;5382;42.136;24.796;2023-10-19T02:51:12;100083.19;;;10.25;100.00
10668;BME280;5382;42.136;24.796;2023-10-19T02:53:39;100088.09;;;10.32;100.00
10668;BME280;5382;42.136;24.796;2023-10-19T02:56:10;100093.00;;;10.38;100.00
10668;BME280;5382;42.136;24.796;2023-10-19T02:58:37;100086.94;;;10.36;100.00
10668;BME280;5382;42.136;24.796;2023-10-19T03:01:12;100074.56;;;10.36;100.00
10668;BME280;5382;42.136;24.796;2023-10-19T03:03:39;100086.44;;;10.56;100.00
10668;BME280;5382;42.136;24.796;2023-10-19T03:06:10;100081.56;;;10.63;100.00
10668;BME280;5382;42.136;24.796;2023-10-19T03:08:36;100086.09;;;10.74;100.00
10668;BME280;5382;42.136;24.796;2023-10-19T03:11:03;100087.38;;;10.81;100.00
10668;BME280;5382;42.136;24.796;2023-10-19T03:13:29;100079.22;;;10.84;100.00
10668;BME280;5382;42.136;24.796;2023-10-19T03:15:58;100088.00;;;10.97;100.00
10668;BME280;5382;42.136;24.796;2023-10-19T03:18:26;100092.00;;;11.03;100.00
10668;BME280;5382;42.136;24.796;2023-10-19T03:20:55;100087.88;;;10.99;100.00
10668;BME280;5382;42.136;24.796;2023-10-19T03:23:22;100087.78;;;11.00;100.00
10668;BME280;5382;42.136;24.796;2023-10-19T03:25:58;100097.19;;;10.91;100.00
10668;BME280;5382;42.136;24.796;2023-10-19T03:28:39;100099.75;;;10.93;100.00
10668;BME280;5382;42.136;24.796;2023-10-19T03:31:06;100100.19;;;11.00;100.00
10668;BME280;5382;42.136;24.796;2023-10-19T03:33:34;100094.47;;;10.93;100.00
10668;BME280;5382;42.136;24.796;2023-10-19T03:36:02;100095.06;;;10.97;100.00
10668;BME280;5382;42.136;24.796;2023-10-19T03:38:31;100096.13;;;11.07;100.00
10668;BME280;5382;42.136;24.796;2023-10-19T03:41:02;100098.44;;;11.11;100.00
10668;BME280;5382;42.136;24.796;2023-10-19T03:43:33;100091.22;;;11.26;100.00
10668;BME280;5382;42.136;24.796;2023-10-19T03:46:02;100087.31;;;11.19;100.00
10668;BME280;5382;42.136;24.796;2023-10-19T03:48:35;100083.09;;;11.17;100.00
10668;BME280;5382;42.136;24.796;2023-10-19T03:51:04;100077.72;;;11.05;100.00
10668;BME280;5382;42.136;24.796;2023-10-19T03:53:32;100078.44;;;11.07;100.00
10668;BME280;5382;42.136;24.796;2023-10-19T03:56:04;100079.63;;;11.03;100.00
10668;BME280;5382;42.136;24.796;2023-10-19T03:58:36;100073.47;;;11.03;100.00
10668;BME280;5382;42.136;24.796;2023-10-19T04:01:04;100070.28;;;11.10;100.00
10668;BME280;5382;42.136;24.796;2023-10-19T04:03:32;100080.44;;;11.17;100.00
10668;BME280;5382;42.136;24.796;2023-10-19T04:06:02;100078.13;;;10.99;100.00
10668;BME280;5382;42.136;24.796;2023-10-19T04:08:31;100081.19;;;11.19;100.00
10668;BME280;5382;42.136;24.796;2023-10-19T04:11:03;100082.63;;;11.23;100.00
10668;BME280;5382;42.136;24.796;2023-10-19T04:13:37;100074.25;;;11.29;100.00
10668;BME280;5382;42.136;24.796;2023-10-19T04:16:04;100071.47;;;11.30;100.00
10668;BME280;5382;42.136;24.796;2023-10-19T04:18:34;100075.00;;;11.31;100.00
10668;BME280;5382;42.136;24.796;2023-10-19T04:21:03;100078.50;;;11.31;100.00
10668;BME280;5382;42.136;24.796;2023-10-19T04:23:31;100083.25;;;11.39;100.00
10668;BME280;5382;42.136;24.796;2023-10-19T04:26:03;100079.41;;;11.43;100.00
10668;BME280;5382;42.136;24.796;2023-10-19T04:28:38;100079.75;;;11.39;100.00
10668;BME280;5382;42.136;24.796;2023-10-19T04:31:13;100077.47;;;11.45;100.00
10668;BME280;5382;42.136;24.796;2023-10-19T04:33:43;100081.88;;;11.33;100.00
10668;BME280;5382;42.136;24.796;2023-10-19T04:36:15;100079.41;;;11.43;100.00
10668;BME280;5382;42.136;24.796;2023-10-19T04:38:46;100073.16;;;11.44;100.00
10668;BME280;5382;42.136;24.796;2023-10-19T04:41:13;100076.78;;;11.30;100.00
10668;BME280;5382;42.136;24.796;2023-10-19T04:43:40;100080.47;;;11.04;100.00
10668;BME280;5382;42.136;24.796;2023-10-19T04:46:13;100083.78;;;10.95;100.00
10668;BME280;5382;42.136;24.796;2023-10-19T04:48:40;100083.03;;;10.80;100.00
10668;BME280;5382;42.136;24.796;2023-10-19T04:51:08;100084.19;;;10.76;100.00
10668;BME280;5382;42.136;24.796;2023-10-19T04:53:36;100083.66;;;10.70;100.00
10668;BME280;5382;42.136;24.796;2023-10-19T04:56:05;100082.50;;;10.62;100.00
10668;BME280;5382;42.136;24.796;2023-10-19T04:58:34;100087.38;;;10.68;100.00
10668;BME280;5382;42.136;24.796;2023-10-19T05:01:02;100087.28;;;10.57;100.00
10668;BME280;5382;42.136;24.796;2023-10-19T05:03:29;100089.63;;;10.61;100.00
10668;BME280;5382;42.136;24.796;2023-10-19T05:05:56;100088.56;;;10.64;100.00
10668;BME280;5382;42.136;24.796;2023-10-19T05:08:23;100091.28;;;10.62;100.00
10668;BME280;5382;42.136;24.796;2023-10-19T05:10:53;100092.44;;;10.71;100.00
10668;BME280;5382;42.136;24.796;2023-10-19T05:13:23;100095.22;;;10.69;100.00
10668;BME280;5382;42.136;24.796;2023-10-19T05:15:50;100087.69;;;10.63;100.00
10668;BME280;5382;42.136;24.796;2023-10-19T05:18:18;100092.44;;;10.58;100.00
10668;BME280;5382;42.136;24.796;2023-10-19T05:20:45;100093.41;;;10.57;100.00
10668;BME280;5382;42.136;24.796;2023-10-19T05:23:12;100098.91;;;10.54;100.00
10668;BME280;5382;42.136;24.796;2023-10-19T05:25:39;100098.94;;;10.67;100.00
10668;BME280;5382;42.136;24.796;2023-10-19T05:28:06;100104.63;;;10.74;100.00
10668;BME280;5382;42.136;24.796;2023-10-19T05:30:36;100101.44;;;10.81;100.00
10668;BME280;5382;42.136;24.796;2023-10-19T05:33:04;100106.13;;;10.78;100.00
10668;BME280;5382;42.136;24.796;2023-10-19T05:35:31;100113.09;;;10.79;100.00
10668;BME280;5382;42.136;24.796;2023-10-19T05:38:00;100103.47;;;10.78;100.00
10668;BME280;5382;42.136;24.796;2023-10-19T05:40:28;100103.16;;;10.69;100.00
10668;BME280;5382;42.136;24.796;2023-10-19T05:42:56;100102.50;;;10.53;100.00
10668;BME280;5382;42.136;24.796;2023-10-19T05:45:26;100105.88;;;10.42;100.00
10668;BME280;5382;42.136;24.796;2023-10-19T05:47:55;100112.97;;;10.42;100.00
10668;BME280;5382;42.136;24.796;2023-10-19T05:50:23;100109.50;;;10.41;100.00
10668;BME280;5382;42.136;24.796;2023-10-19T05:52:50;100087.81;;;10.09;100.00
10668;BME280;5382;42.136;24.796;2023-10-19T05:55:17;100100.97;;;10.23;100.00
10668;BME280;5382;42.136;24.796;2023-10-19T05:57:46;100098.75;;;10.17;100.00
10668;BME280;5382;42.136;24.796;2023-10-19T06:00:15;100110.03;;;10.19;100.00
10668;BME280;5382;42.136;24.796;2023-10-19T06:02:44;100110.59;;;10.24;100.00
10668;BME280;5382;42.136;24.796;2023-10-19T06:05:13;100108.69;;;10.26;100.00
10668;BME280;5382;42.136;24.796;2023-10-19T06:07:42;100106.25;;;10.23;100.00
10668;BME280;5382;42.136;24.796;2023-10-19T06:10:11;100098.09;;;10.26;100.00
10668;BME280;5382;42.136;24.796;2023-10-19T06:12:41;100083.19;;;10.25;100.00
10668;BME280;5382;42.136;24.796;2023-10-19T06:15:09;100109.81;;;10.50;100.00
10668;BME280;5382;42.136;24.796;2023-10-19T06:17:38;100097.63;;;10.47;100.00
10668;BME280;5382;42.136;24.796;2023-10-19T06:20:06;100073.41;;;10.28;100.00
10668;BME280;5382;42.136;24.796;2023-10-19T06:22:35;100109.81;;;10.50;100.00
10668;BME280;5382;42.136;24.796;2023-10-19T06:25:03;100087.06;;;10.47;100.00
10668;BME280;5382;42.136;24.796;2023-10-19T06:27:31;100100.50;;;10.57;100.00
10668;BME280;5382;42.136;24.796;2023-10-19T06:29:59;100103.25;;;10.55;100.00
10668;BME280;5382;42.136;24.796;2023-10-19T06:32:26;100109.91;;;10.61;100.00
10668;BME280;5382;42.136;24.796;2023-10-19T06:34:53;100115.44;;;10.70;100.00
10668;BME280;5382;42.136;24.796;2023-10-19T06:37:20;100108.97;;;10.75;100.00
10668;BME280;5382;42.136;24.796;2023-10-19T06:39:48;100102.31;;;10.82;100.00
10668;BME280;5382;42.136;24.796;2023-10-19T06:42:17;100105.06;;;10.93;100.00
10668;BME280;5382;42.136;24.796;2023-10-19T06:44:43;100109.59;;;11.04;100.00
10668;BME280;5382;42.136;24.796;2023-10-19T06:47:11;100111.06;;;11.08;100.00
10668;BME280;5382;42.136;24.796;2023-10-19T06:49:39;100098.22;;;11.14;100.00
10668;BME280;5382;42.136;24.796;2023-10-19T06:52:06;100117.16;;;11.34;100.00
10668;BME280;5382;42.136;24.796;2023-10-19T06:54:37;100104.44;;;11.39;100.00
10668;BME280;5382;42.136;24.796;2023-10-19T06:57:06;100099.66;;;11.44;100.00
10668;BME280;5382;42.136;24.796;2023-10-19T06:59:33;100109.56;;;11.53;100.00
10668;BME280;5382;42.136;24.796;2023-10-19T07:02:00;100103.84;;;11.60;100.00
10668;BME280;5382;42.136;24.796;2023-10-19T07:04:28;100105.19;;;11.65;100.00
10668;BME280;5382;42.136;24.796;2023-10-19T07:06:55;100116.41;;;11.69;100.00
10668;BME280;5382;42.136;24.796;2023-10-19T07:09:22;100118.31;;;11.67;100.00
10668;BME280;5382;42.136;24.796;2023-10-19T07:11:49;100118.63;;;11.75;100.00
10668;BME280;5382;42.136;24.796;2023-10-19T07:14:20;100113.31;;;11.88;100.00
10668;BME280;5382;42.136;24.796;2023-10-19T07:16:49;100108.28;;;11.96;100.00
10668;BME280;5382;42.136;24.796;2023-10-19T07:19:17;100112.66;;;12.08;100.00
10668;BME280;5382;42.136;24.796;2023-10-19T07:21:44;100107.88;;;12.13;100.00
10668;BME280;5382;42.136;24.796;2023-10-19T07:24:15;100106.50;;;12.08;100.00
10668;BME280;5382;42.136;24.796;2023-10-19T07:26:45;100105.22;;;12.13;100.00
10668;BME280;5382;42.136;24.796;2023-10-19T07:29:30;100104.84;;;12.18;100.00
10668;BME280;5382;42.136;24.796;2023-10-19T07:31:57;100100.94;;;12.35;100.00
10668;BME280;5382;42.136;24.796;2023-10-19T07:34:24;100095.78;;;12.44;100.00
10668;BME280;5382;42.136;24.796;2023-10-19T07:36:54;100099.91;;;12.60;100.00
10668;BME280;5382;42.136;24.796;2023-10-19T07:39:21;100080.09;;;12.64;100.00
10668;BME280;5382;42.136;24.796;2023-10-19T07:41:48;100090.63;;;12.65;100.00
10668;BME280;5382;42.136;24.796;2023-10-19T07:44:15;100100.88;;;12.93;100.00
10668;BME280;5382;42.136;24.796;2023-10-19T07:46:46;100099.31;;;13.13;100.00
10668;BME280;5382;42.136;24.796;2023-10-19T07:49:14;100096.16;;;13.19;100.00
10668;BME280;5382;42.136;24.796;2023-10-19T07:51:45;100091.13;;;13.27;100.00
10668;BME280;5382;42.136;24.796;2023-10-19T07:54:13;100087.97;;;13.33;100.00
10668;BME280;5382;42.136;24.796;2023-10-19T07:56:39;100090.00;;;13.41;100.00
10668;BME280;5382;42.136;24.796;2023-10-19T07:59:07;100094.56;;;13.50;100.00
10668;BME280;5382;42.136;24.796;2023-10-19T08:01:34;100092.22;;;13.68;100.00
10668;BME280;5382;42.136;24.796;2023-10-19T08:04:03;100078.44;;;13.74;100.00
10668;BME280;5382;42.136;24.796;2023-10-19T08:06:31;100081.09;;;13.74;100.00
10668;BME280;5382;42.136;24.796;2023-10-19T08:08:57;100085.44;;;13.75;100.00
10668;BME280;5382;42.136;24.796;2023-10-19T08:11:25;100089.28;;;13.82;100.00
10668;BME280;5382;42.136;24.796;2023-10-19T08:13:52;100085.47;;;13.96;100.00
10668;BME280;5382;42.136;24.796;2023-10-19T08:16:20;100068.16;;;14.02;100.00
10668;BME280;5382;42.136;24.796;2023-10-19T08:18:48;100073.06;;;14.17;100.00
10668;BME280;5382;42.136;24.796;2023-10-19T08:21:18;100083.44;;;14.21;100.00
10668;BME280;5382;42.136;24.796;2023-10-19T08:23:46;100079.81;;;14.22;100.00
10668;BME280;5382;42.136;24.796;2023-10-19T08:26:13;100067.94;;;14.26;100.00
10668;BME280;5382;42.136;24.796;2023-10-19T08:28:41;100068.84;;;14.36;100.00
10668;BME280;5382;42.136;24.796;2023-10-19T08:31:08;100068.00;;;14.56;100.00
10668;BME280;5382;42.136;24.796;2023-10-19T08:33:36;100070.03;;;14.74;100.00
10668;BME280;5382;42.136;24.796;2023-10-19T08:36:05;100077.06;;;14.75;100.00
10668;BME280;5382;42.136;24.796;2023-10-19T08:38:33;100069.25;;;14.83;100.00
10668;BME280;5382;42.136;24.796;2023-10-19T08:41:00;100061.53;;;14.80;100.00
10668;BME280;5382;42.136;24.796;2023-10-19T08:43:28;100067.91;;;14.98;100.00
10668;BME280;5382;42.136;24.796;2023-10-19T08:45:59;100063.75;;;15.15;100.00
10668;BME280;5382;42.136;24.796;2023-10-19T08:48:26;100068.31;;;15.34;100.00
10668;BME280;5382;42.136;24.796;2023-10-19T08:50:54;100072.13;;;15.41;100.00
10668;BME280;5382;42.136;24.796;2023-10-19T08:53:22;99991.50;;;15.09;100.00
10668;BME280;5382;42.136;24.796;2023-10-19T08:55:52;100054.63;;;15.68;100.00
10668;BME280;5382;42.136;24.796;2023-10-19T08:58:19;100065.59;;;15.84;100.00
10668;BME280;5382;42.136;24.796;2023-10-19T09:00:48;100068.13;;;16.05;100.00
10668;BME280;5382;42.136;24.796;2023-10-19T09:03:19;100055.06;;;16.22;100.00
10668;BME280;5382;42.136;24.796;2023-10-19T09:05:47;100051.91;;;16.36;100.00
10668;BME280;5382;42.136;24.796;2023-10-19T09:08:15;100046.56;;;16.46;100.00
10668;BME280;5382;42.136;24.796;2023-10-19T09:10:44;100042.44;;;16.61;100.00
10668;BME280;5382;42.136;24.796;2023-10-19T09:13:13;100001.16;;;16.46;100.00
10668;BME280;5382;42.136;24.796;2023-10-19T09:15:44;100031.47;;;16.64;100.00
10668;BME280;5382;42.136;24.796;2023-10-19T09:18:14;99985.00;;;16.47;100.00
10668;BME280;5382;42.136;24.796;2023-10-19T09:20:42;100026.66;;;16.77;100.00
10668;BME280;5382;42.136;24.796;2023-10-19T09:23:19;100032.50;;;16.91;100.00
10668;BME280;5382;42.136;24.796;2023-10-19T09:25:48;100033.66;;;16.88;100.00
10668;BME280;5382;42.136;24.796;2023-10-19T09:28:17;100019.84;;;16.93;100.00
10668;BME280;5382;42.136;24.796;2023-10-19T09:30:43;100024.38;;;17.10;100.00
10668;BME280;5382;42.136;24.796;2023-10-19T09:33:11;100010.00;;;17.39;100.00
10668;BME280;5382;42.136;24.796;2023-10-19T09:35:43;99992.28;;;17.38;100.00
10668;BME280;5382;42.136;24.796;2023-10-19T09:38:13;100000.97;;;17.22;100.00
10668;BME280;5382;42.136;24.796;2023-10-19T09:40:40;100001.06;;;17.30;100.00
10668;BME280;5382;42.136;24.796;2023-10-19T09:43:20;100003.19;;;17.44;100.00
10668;BME280;5382;42.136;24.796;2023-10-19T09:45:53;99992.94;;;17.22;100.00
10668;BME280;5382;42.136;24.796;2023-10-19T09:48:26;99999.75;;;17.52;100.00
10668;BME280;5382;42.136;24.796;2023-10-19T09:50:55;99988.28;;;17.78;100.00
10668;BME280;5382;42.136;24.796;2023-10-19T09:53:25;99984.53;;;17.88;100.00
10668;BME280;5382;42.136;24.796;2023-10-19T09:55:54;99973.38;;;17.93;100.00
10668;BME280;5382;42.136;24.796;2023-10-19T09:58:25;99976.31;;;17.82;100.00
10668;BME280;5382;42.136;24.796;2023-10-19T10:00:56;99977.16;;;18.08;100.00
10668;BME280;5382;42.136;24.796;2023-10-19T10:03:46;99978.00;;;18.35;100.00
10668;BME280;5382;42.136;24.796;2023-10-19T10:06:15;99978.03;;;18.69;100.00
10668;BME280;5382;42.136;24.796;2023-10-19T10:08:43;99961.63;;;18.72;100.00
10668;BME280;5382;42.136;24.796;2023-10-19T10:11:16;99957.69;;;18.85;100.00
10668;BME280;5382;42.136;24.796;2023-10-19T10:13:43;99967.41;;;18.60;100.00
10668;BME280;5382;42.136;24.796;2023-10-19T10:16:14;99966.22;;;18.54;100.00
10668;BME280;5382;42.136;24.796;2023-10-19T10:18:42;99961.31;;;18.76;100.00
10668;BME280;5382;42.136;24.796;2023-10-19T10:21:11;99955.69;;;18.95;100.00
10668;BME280;5382;42.136;24.796;2023-10-19T10:23:42;99947.47;;;18.96;100.00
10668;BME280;5382;42.136;24.796;2023-10-19T10:26:10;99958.91;;;19.07;100.00
10668;BME280;5382;42.136;24.796;2023-10-19T10:28:39;99955.41;;;19.23;100.00
10668;BME280;5382;42.136;24.796;2023-10-19T10:31:14;99962.38;;;19.74;100.00
10668;BME280;5382;42.136;24.796;2023-10-19T10:33:43;99952.25;;;20.17;100.00
10668;BME280;5382;42.136;24.796;2023-10-19T10:36:13;99956.59;;;20.82;100.00
10668;BME280;5382;42.136;24.796;2023-10-19T10:38:40;99945.25;;;21.26;96.13
10668;BME280;5382;42.136;24.796;2023-10-19T10:41:07;99939.81;;;21.43;96.80
10668;BME280;5382;42.136;24.796;2023-10-19T10:43:48;99930.38;;;21.99;98.71
10668;BME280;5382;42.136;24.796;2023-10-19T10:46:17;99918.19;;;22.93;80.95
10668;BME280;5382;42.136;24.796;2023-10-19T10:48:44;99909.97;;;23.87;73.77
10668;BME280;5382;42.136;24.796;2023-10-19T10:51:21;99897.22;;;24.44;70.84
10668;BME280;5382;42.136;24.796;2023-10-19T10:53:50;99896.19;;;24.10;70.17
10668;BME280;5382;42.136;24.796;2023-10-19T10:56:18;99896.59;;;24.90;67.94
10668;BME280;5382;42.136;24.796;2023-10-19T10:58:45;99864.81;;;25.78;63.83
10668;BME280;5382;42.136;24.796;2023-10-19T11:01:12;99874.84;;;26.69;61.44
10668;BME280;5382;42.136;24.796;2023-10-19T11:03:41;99864.84;;;27.33;58.12
10668;BME280;5382;42.136;24.796;2023-10-19T11:06:10;99866.38;;;27.98;55.80
10668;BME280;5382;42.136;24.796;2023-10-19T11:08:38;99861.47;;;26.68;55.44
10668;BME280;5382;42.136;24.796;2023-10-19T11:11:07;99845.81;;;27.33;55.38
10668;BME280;5382;42.136;24.796;2023-10-19T11:13:36;99851.47;;;27.57;55.26
10668;BME280;5382;42.136;24.796;2023-10-19T11:16:04;99841.63;;;27.37;55.75
10668;BME280;5382;42.136;24.796;2023-10-19T11:18:34;99840.47;;;28.14;52.29
10668;BME280;5382;42.136;24.796;2023-10-19T11:21:06;99838.81;;;28.49;50.91
10668;BME280;5382;42.136;24.796;2023-10-19T11:23:41;99828.50;;;28.70;50.69
10668;BME280;5382;42.136;24.796;2023-10-19T11:26:09;99831.88;;;28.35;50.17
10668;BME280;5382;42.136;24.796;2023-10-19T11:28:37;99826.97;;;28.07;50.47
10668;BME280;5382;42.136;24.796;2023-10-19T11:31:13;99795.78;;;27.66;50.41
10668;BME280;5382;42.136;24.796;2023-10-19T11:33:41;99806.47;;;27.86;51.08
10668;BME280;5382;42.136;24.796;2023-10-19T11:36:15;99792.72;;;27.81;50.65
10668;BME280;5382;42.136;24.796;2023-10-19T11:38:43;99800.22;;;26.79;52.40
10668;BME280;5382;42.136;24.796;2023-10-19T11:41:10;99790.50;;;26.96;54.79
10668;BME280;5382;42.136;24.796;2023-10-19T11:43:38;99754.19;;;27.15;52.65
10668;BME280;5382;42.136;24.796;2023-10-19T11:46:05;99787.81;;;28.08;52.11
10668;BME280;5382;42.136;24.796;2023-10-19T11:48:33;99776.03;;;27.34;51.99
10668;BME280;5382;42.136;24.796;2023-10-19T11:51:01;99764.13;;;27.53;51.60
10668;BME280;5382;42.136;24.796;2023-10-19T11:53:32;99769.44;;;28.03;51.04
10668;BME280;5382;42.136;24.796;2023-10-19T11:56:03;99763.16;;;28.03;50.40
10668;BME280;5382;42.136;24.796;2023-10-19T11:58:31;99770.63;;;27.52;49.99
10668;BME280;5382;42.136;24.796;2023-10-19T12:01:00;99748.81;;;26.84;50.98
10668;BME280;5382;42.136;24.796;2023-10-19T12:03:28;99771.88;;;26.29;52.06
10668;BME280;5382;42.136;24.796;2023-10-19T12:06:00;99771.31;;;26.14;53.47
10668;BME280;5382;42.136;24.796;2023-10-19T12:08:31;99761.19;;;25.83;54.39
10668;BME280;5382;42.136;24.796;2023-10-19T12:10:58;99745.97;;;25.82;53.63
10668;BME280;5382;42.136;24.796;2023-10-19T12:13:27;99756.81;;;25.75;55.66
10668;BME280;5382;42.136;24.796;2023-10-19T12:15:54;99748.94;;;25.67;55.76
10668;BME280;5382;42.136;24.796;2023-10-19T12:18:21;99745.63;;;25.58;55.92
10668;BME280;5382;42.136;24.796;2023-10-19T12:20:47;99748.78;;;25.35;56.11
10668;BME280;5382;42.136;24.796;2023-10-19T12:23:14;99738.53;;;25.57;55.92
10668;BME280;5382;42.136;24.796;2023-10-19T12:25:43;99741.81;;;25.66;55.92
10668;BME280;5382;42.136;24.796;2023-10-19T12:28:09;99751.41;;;25.75;54.73
10668;BME280;5382;42.136;24.796;2023-10-19T12:30:41;99747.25;;;25.66;55.15
10668;BME280;5382;42.136;24.796;2023-10-19T12:33:08;99737.00;;;26.33;54.82
10668;BME280;5382;42.136;24.796;2023-10-19T12:35:38;99711.78;;;27.21;51.75
10668;BME280;5382;42.136;24.796;2023-10-19T12:38:24;99721.50;;;28.21;49.67
10668;BME280;5382;42.136;24.796;2023-10-19T12:40:54;99714.22;;;28.33;49.82
10668;BME280;5382;42.136;24.796;2023-10-19T12:43:21;99705.81;;;28.65;48.64
10668;BME280;5382;42.136;24.796;2023-10-19T12:45:48;99707.09;;;29.16;47.26
10668;BME280;5382;42.136;24.796;2023-10-19T12:48:19;99678.25;;;30.08;45.41
10668;BME280;5382;42.136;24.796;2023-10-19T12:50:46;99697.56;;;30.18;43.48
10668;BME280;5382;42.136;24.796;2023-10-19T12:53:14;99690.81;;;31.00;42.10
10668;BME280;5382;42.136;24.796;2023-10-19T12:55:40;99683.94;;;30.97;41.65